Time;durP1;ratioP1;P1;durP2;ratioP2;P2;SDS_P1;SDS_P2;PMS_P1;PMS_P2;Temp;Humidity;BMP_temperature;BMP_pressure;BME280_temperature;BME280_humidity;BME280_pressure;Samples;Min_cycle;Max_cycle;Signal;HPM_P1;HPM_P2
2022/01/09 00:01:48;;;;;;;22.15;10.30;;;4.20;99.90;;;;;;5079678;28;20130;-71
2022/01/09 00:04:14;;;;;;;21.98;11.32;;;4.20;99.90;;;;;;5080611;28;20462;-69
2022/01/09 00:06:40;;;;;;;24.55;11.57;;;4.20;99.90;;;;;;5096748;28;20436;-71
2022/01/09 00:09:05;;;;;;;24.02;10.35;;;4.20;99.90;;;;;;5079913;28;20086;-70
2022/01/09 00:11:31;;;;;;;24.20;12.65;;;4.20;99.90;;;;;;5096856;28;20039;-71
2022/01/09 00:13:57;;;;;;;24.35;11.43;;;4.20;99.90;;;;;;5096654;28;20498;-70
2022/01/09 00:16:24;;;;;;;20.77;11.48;;;4.20;99.90;;;;;;5114502;28;20221;-71
2022/01/09 00:18:51;;;;;;;26.52;13.77;;;4.20;99.90;;;;;;5114592;28;20055;-71
2022/01/09 00:21:18;;;;;;;21.00;11.23;;;4.20;99.90;;;;;;5080145;28;20108;-70
2022/01/09 00:23:47;;;;;;;22.60;11.55;;;4.20;99.90;;;;;;5096586;28;20083;-70
2022/01/09 00:26:13;;;;;;;21.83;10.95;;;4.20;99.90;;;;;;5096334;28;20047;-70
2022/01/09 00:28:38;;;;;;;24.20;13.80;;;4.20;99.90;;;;;;5114596;28;20047;-71
2022/01/09 00:31:04;;;;;;;23.48;11.52;;;4.20;99.90;;;;;;5080254;28;20039;-69
2022/01/09 00:33:30;;;;;;;24.60;12.23;;;4.20;99.90;;;;;;5114210;28;20050;-71
2022/01/09 00:35:56;;;;;;;24.67;12.90;;;4.20;99.90;;;;;;5130731;27;20048;-69
2022/01/09 00:38:22;;;;;;;28.25;11.82;;;4.20;99.90;;;;;;5114399;28;20092;-69
2022/01/09 00:40:48;;;;;;;25.13;12.80;;;4.20;99.90;;;;;;5095951;28;20054;-70
2022/01/09 00:43:14;;;;;;;25.60;12.27;;;4.20;99.90;;;;;;5113181;28;20438;-70
2022/01/09 00:45:41;;;;;;;26.77;13.02;;;4.20;99.90;;;;;;5114763;28;20048;-69
2022/01/09 00:48:08;;;;;;;25.23;13.07;;;4.20;99.90;;;;;;5096271;28;20058;-70
2022/01/09 00:50:36;;;;;;;25.33;13.02;;;4.20;99.90;;;;;;5129846;27;20044;-70
2022/01/09 00:53:04;;;;;;;32.05;13.77;;;4.20;99.90;;;;;;5112942;28;20058;-71
2022/01/09 00:55:30;;;;;;;28.45;14.30;;;4.20;99.90;;;;;;5095340;28;20059;-72
2022/01/09 00:57:56;;;;;;;27.15;13.20;;;4.20;99.90;;;;;;5078730;28;20055;-73
2022/01/09 01:00:22;;;;;;;27.67;13.05;;;4.20;99.90;;;;;;5062051;28;20054;-70
2022/01/09 01:02:48;;;;;;;30.58;13.77;;;4.20;99.90;;;;;;5095731;28;20119;-71
2022/01/09 01:05:15;;;;;;;29.42;13.23;;;4.20;99.90;;;;;;5078202;28;20090;-70
2022/01/09 01:07:41;;;;;;;31.65;13.90;;;4.20;99.90;;;;;;5113612;28;20432;-69
2022/01/09 01:10:07;;;;;;;30.55;14.38;;;4.20;99.90;;;;;;5095345;28;20082;-70
2022/01/09 01:12:33;;;;;;;29.73;13.57;;;4.20;99.90;;;;;;5113565;28;20082;-69
2022/01/09 01:14:59;;;;;;;28.63;13.40;;;4.20;99.90;;;;;;5113421;28;20043;-72
2022/01/09 01:17:25;;;;;;;23.40;11.52;;;4.30;99.90;;;;;;5095148;28;20048;-70
2022/01/09 01:19:53;;;;;;;27.77;12.95;;;4.30;99.90;;;;;;5113613;28;20066;-71
2022/01/09 01:22:19;;;;;;;24.83;12.65;;;4.30;99.90;;;;;;5129523;27;20407;-71
2022/01/09 01:24:46;;;;;;;28.90;12.40;;;4.30;99.90;;;;;;5095190;28;20051;-70
2022/01/09 01:27:13;;;;;;;25.50;12.20;;;4.30;99.90;;;;;;5111604;28;20134;-70
2022/01/09 01:29:39;;;;;;;28.00;13.52;;;4.30;99.90;;;;;;5113346;28;20051;-70
2022/01/09 01:32:05;;;;;;;26.65;12.13;;;4.30;99.90;;;;;;5095251;28;20054;-71
2022/01/09 01:34:33;;;;;;;31.70;13.48;;;4.30;99.90;;;;;;5113342;28;20039;-69
2022/01/09 01:36:59;;;;;;;29.00;12.73;;;4.30;99.90;;;;;;5077926;28;20044;-72
2022/01/09 01:39:25;;;;;;;28.73;13.17;;;4.30;99.90;;;;;;5111710;28;20058;-69
2022/01/09 01:41:51;;;;;;;32.95;13.13;;;4.30;99.90;;;;;;5112974;28;20304;-70
2022/01/09 01:44:17;;;;;;;26.77;13.10;;;4.40;99.90;;;;;;5095036;28;20122;-70
2022/01/09 01:46:43;;;;;;;29.48;12.52;;;4.40;99.90;;;;;;5093995;28;20419;-70
2022/01/09 01:49:13;;;;;;;26.38;12.48;;;4.40;99.90;;;;;;5095032;28;20075;-71
2022/01/09 01:51:41;;;;;;;29.85;13.70;;;4.40;99.90;;;;;;5113358;28;20126;-71
2022/01/09 01:54:12;;;;;;;29.27;12.85;;;4.40;99.90;;;;;;5095083;28;20116;-73
2022/01/09 01:56:38;;;;;;;33.63;14.38;;;4.40;99.90;;;;;;5113131;28;20394;-73
2022/01/09 01:59:06;;;;;;;31.20;13.00;;;4.40;99.90;;;;;;5094856;28;20135;-74
2022/01/09 02:01:35;;;;;;;;;;;4.40;99.90;;;;;;5078082;28;20039;-72
2022/01/09 02:04:03;;;;;;;27.40;11.23;;;4.40;99.90;;;;;;5128163;27;19927;-72
2022/01/09 02:06:28;;;;;;;;;;;4.40;99.90;;;;;;5061415;28;20105;-71
2022/01/09 02:08:54;;;;;;;29.88;13.52;;;4.40;99.90;;;;;;5128966;27;19924;-72
2022/01/09 02:11:21;;;;;;;26.17;11.30;;;4.40;99.90;;;;;;5094470;28;20050;-72
2022/01/09 02:13:47;;;;;;;22.70;10.05;;;4.40;99.90;;;;;;5110968;28;20492;-71
2022/01/09 02:16:17;;;;;;;30.38;13.18;;;4.50;99.90;;;;;;5094376;28;20048;-71
2022/01/09 02:18:47;;;;;;;28.27;12.90;;;4.40;99.90;;;;;;5112458;28;20450;-72
2022/01/09 02:21:14;;;;;;;27.60;11.55;;;4.50;99.90;;;;;;5095048;28;20044;-72
2022/01/09 02:23:45;;;;;;;27.33;11.13;;;4.50;99.90;;;;;;5094432;28;20071;-72
2022/01/09 02:26:11;;;;;;;24.35;9.18;;;4.50;99.90;;;;;;5094798;28;20142;-72
2022/01/09 02:28:37;;;;;;;23.15;9.18;;;4.50;99.90;;;;;;5094288;28;20120;-72
2022/01/09 02:31:03;;;;;;;25.15;9.65;;;4.50;99.90;;;;;;5094312;28;20040;-72
2022/01/09 02:33:29;;;;;;;23.13;9.00;;;4.50;99.90;;;;;;5094361;28;20075;-72
2022/01/09 02:35:56;;;;;;;21.02;9.45;;;4.60;99.90;;;;;;5094235;28;20345;-72
2022/01/09 02:38:22;;;;;;;30.20;11.40;;;4.60;99.90;;;;;;5128970;28;20069;-72
2022/01/09 02:40:52;;;;;;;24.88;9.43;;;4.50;99.90;;;;;;5112724;28;20130;-72
2022/01/09 02:43:18;;;;;;;23.77;9.63;;;4.60;99.90;;;;;;5111781;28;20055;-72
2022/01/09 02:45:46;;;;;;;21.70;9.00;;;4.60;99.90;;;;;;5112581;28;20055;-71
2022/01/09 02:48:12;;;;;;;20.67;8.50;;;4.60;99.90;;;;;;5128289;28;20376;-71
2022/01/09 02:50:43;;;;;;;21.58;9.02;;;4.60;99.90;;;;;;5128740;28;20055;-70
2022/01/09 02:53:16;;;;;;;21.23;8.13;;;4.60;99.90;;;;;;5095016;28;20114;-73
2022/01/09 02:55:43;;;;;;;23.10;8.35;;;4.60;99.90;;;;;;5094564;28;20043;-73
2022/01/09 02:58:08;;;;;;;22.35;8.75;;;4.70;99.90;;;;;;5113210;28;20184;-73
2022/01/09 03:00:38;;;;;;;23.58;9.00;;;4.70;99.90;;;;;;5116588;28;20518;-73
2022/01/09 03:03:05;;;;;;;21.27;8.77;;;4.70;99.90;;;;;;5131760;27;20042;-73
2022/01/09 03:05:31;;;;;;;21.60;7.57;;;4.70;99.90;;;;;;5097913;28;20051;-72
2022/01/09 03:07:57;;;;;;;24.95;7.82;;;4.70;99.90;;;;;;5097670;28;20228;-73
2022/01/09 03:10:23;;;;;;;23.08;8.35;;;4.70;99.90;;;;;;5115782;28;20443;-73
2022/01/09 03:12:51;;;;;;;22.55;7.95;;;4.80;99.90;;;;;;5098029;28;20362;-73
2022/01/09 03:15:17;;;;;;;;;;;4.80;99.90;;;;;;5116223;28;20043;-73
2022/01/09 03:17:43;;;;;;;26.30;7.83;;;4.70;99.90;;;;;;5116230;28;19973;-73
2022/01/09 03:20:12;;;;;;;21.90;7.40;;;4.80;99.90;;;;;;5128967;27;20052;-72
2022/01/09 03:22:38;;;;;;;21.17;7.80;;;4.80;99.90;;;;;;5095498;28;20187;-72
2022/01/09 03:25:04;;;;;;;22.55;7.10;;;4.80;99.90;;;;;;5095708;28;20158;-72
2022/01/09 03:27:30;;;;;;;20.80;6.50;;;4.80;99.90;;;;;;5077709;28;20166;-72
2022/01/09 03:29:56;;;;;;;22.77;5.55;;;4.90;99.90;;;;;;5095412;28;20079;-71
2022/01/09 03:32:22;;;;;;;24.08;3.83;;;4.90;99.90;;;;;;5095191;28;20044;-71
2022/01/09 03:34:47;;;;;;;30.83;3.28;;;5.00;99.90;;;;;;5093973;28;20151;-73
2022/01/09 03:37:13;;;;;;;40.05;3.90;;;5.20;99.90;;;;;;5093958;28;20092;-73
2022/01/09 03:39:39;;;;;;;42.67;2.88;;;5.30;99.90;;;;;;5077741;28;20155;-72
2022/01/09 03:42:05;;;;;;;42.05;3.45;;;5.40;99.90;;;;;;5093803;28;20077;-72
2022/01/09 03:44:31;;;;;;;38.67;3.05;;;5.40;99.90;;;;;;5095320;28;20048;-71
2022/01/09 03:46:57;;;;;;;37.78;2.78;;;5.40;99.90;;;;;;5093860;28;20048;-71
2022/01/09 03:49:23;;;;;;;47.60;2.92;;;5.50;99.90;;;;;;5094033;28;20051;-70
2022/01/09 03:51:54;;;;;;;34.40;2.85;;;5.50;99.90;;;;;;5094023;28;20464;-71
2022/01/09 03:54:21;;;;;;;45.00;3.08;;;5.50;99.90;;;;;;5095173;28;20131;-71
2022/01/09 03:56:48;;;;;;;53.67;3.78;;;5.50;99.90;;;;;;5093812;28;20044;-71
2022/01/09 03:59:16;;;;;;;37.92;2.95;;;5.60;99.90;;;;;;5093992;28;20117;-73
2022/01/09 04:01:41;;;;;;;40.10;3.25;;;5.50;99.90;;;;;;5094945;28;20046;-72
2022/01/09 04:04:07;;;;;;;44.25;3.75;;;5.60;99.90;;;;;;5076754;28;20040;-71
2022/01/09 04:06:33;;;;;;;46.22;3.53;;;5.60;99.90;;;;;;5076479;28;20052;-71
2022/01/09 04:09:06;;;;;;;53.50;4.07;;;5.60;99.90;;;;;;5093308;28;20265;-72
2022/01/09 04:11:36;;;;;;;53.20;4.00;;;5.60;99.90;;;;;;5077347;28;20048;-71
2022/01/09 04:14:03;;;;;;;41.90;4.43;;;5.60;99.90;;;;;;5095223;28;20055;-72
2022/01/09 04:16:28;;;;;;;55.85;4.80;;;5.60;99.90;;;;;;5092961;28;20056;-71
2022/01/09 04:18:54;;;;;;;44.42;4.65;;;5.60;99.90;;;;;;5093638;28;20109;-72
2022/01/09 04:21:21;;;;;;;44.58;4.07;;;5.50;99.90;;;;;;5114145;28;20047;-73
2022/01/09 04:23:46;;;;;;;40.20;2.75;;;5.60;99.90;;;;;;5078623;28;20055;-71
2022/01/09 04:26:12;;;;;;;42.65;2.78;;;5.60;99.90;;;;;;5114892;28;20043;-71
2022/01/09 04:28:38;;;;;;;38.00;3.72;;;5.60;99.90;;;;;;5096895;28;20177;-71
2022/01/09 04:31:04;;;;;;;40.15;3.03;;;5.60;99.90;;;;;;5096423;28;20104;-71
2022/01/09 04:33:30;;;;;;;40.13;3.05;;;5.60;99.90;;;;;;5079808;28;20058;-71
2022/01/09 04:35:55;;;;;;;38.67;3.67;;;5.60;99.90;;;;;;5096215;28;20468;-71
2022/01/09 04:38:21;;;;;;;40.13;2.42;;;5.70;99.90;;;;;;5096926;28;20081;-73
2022/01/09 04:40:47;;;;;;;39.88;2.63;;;5.60;99.90;;;;;;5096107;28;20479;-72
2022/01/09 04:43:15;;;;;;;43.63;3.40;;;5.60;99.90;;;;;;5097184;28;20130;-71
2022/01/09 04:45:40;;;;;;;;;;;5.60;99.90;;;;;;5063588;28;20043;-71
2022/01/09 04:48:07;;;;;;;43.33;3.88;;;5.60;99.90;;;;;;5096362;28;19931;-72
2022/01/09 04:50:36;;;;;;;42.80;3.25;;;5.60;99.90;;;;;;5130669;27;20055;-72
2022/01/09 04:53:07;;;;;;;42.30;2.60;;;5.70;99.90;;;;;;5130615;27;20048;-71
2022/01/09 04:55:34;;;;;;;28.83;2.65;;;5.60;99.90;;;;;;5114378;28;20063;-71
2022/01/09 04:58:00;;;;;;;31.27;2.15;;;5.60;99.90;;;;;;5114007;28;20479;-71
2022/01/09 05:00:27;;;;;;;33.83;3.00;;;5.60;99.90;;;;;;5095995;28;20475;-71
2022/01/09 05:02:52;;;;;;;23.95;1.85;;;5.50;99.90;;;;;;5130363;27;20085;-71
2022/01/09 05:05:19;;;;;;;22.13;1.88;;;5.50;99.90;;;;;;5079051;28;20067;-71
2022/01/09 05:07:45;;;;;;;23.20;2.43;;;5.60;99.90;;;;;;5078814;28;20494;-71
2022/01/09 05:10:12;;;;;;;29.47;2.37;;;5.60;99.90;;;;;;5113792;28;20095;-71
2022/01/09 05:12:39;;;;;;;29.45;1.92;;;5.40;99.90;;;;;;5078965;28;20439;-70
2022/01/09 05:15:08;;;;;;;26.65;2.25;;;5.40;99.90;;;;;;5129841;27;20506;-70
2022/01/09 05:17:34;;;;;;;22.05;1.20;;;5.50;99.90;;;;;;5113822;28;20077;-70
2022/01/09 05:20:00;;;;;;;19.20;1.30;;;5.40;99.90;;;;;;5113304;28;20142;-70
2022/01/09 05:22:28;;;;;;;31.48;2.35;;;5.40;99.90;;;;;;5128431;27;20128;-72
2022/01/09 05:24:55;;;;;;;22.10;1.58;;;5.40;99.90;;;;;;5079621;28;20365;-71
2022/01/09 05:27:23;;;;;;;13.65;1.27;;;5.40;99.90;;;;;;5095380;28;20048;-71
2022/01/09 05:29:48;;;;;;;;;;;5.40;99.90;;;;;;5096094;28;20070;-71
2022/01/09 05:32:14;;;;;;;19.08;1.52;;;5.40;99.90;;;;;;5129756;27;19920;-70
2022/01/09 05:34:40;;;;;;;15.43;1.00;;;5.40;99.90;;;;;;5114086;28;20108;-71
2022/01/09 05:37:06;;;;;;;21.42;1.58;;;5.40;99.90;;;;;;5113205;28;20484;-72
2022/01/09 05:39:33;;;;;;;30.90;1.83;;;5.40;99.90;;;;;;5129563;27;20043;-70
2022/01/09 05:42:01;;;;;;;24.27;1.87;;;5.40;99.90;;;;;;5095343;28;20047;-69
2022/01/09 05:44:27;;;;;;;18.88;1.77;;;5.40;99.90;;;;;;5078564;28;20372;-71
2022/01/09 05:46:53;;;;;;;21.48;2.20;;;5.30;99.90;;;;;;5130239;27;20079;-69
2022/01/09 05:49:19;;;;;;;16.23;1.27;;;5.30;99.90;;;;;;5113928;28;20414;-70
2022/01/09 05:51:45;;;;;;;25.40;1.95;;;5.30;99.90;;;;;;5113359;28;20111;-69
2022/01/09 05:54:10;;;;;;;21.08;1.20;;;5.30;99.90;;;;;;5113174;28;20050;-69
2022/01/09 05:56:36;;;;;;;17.17;1.55;;;5.30;99.90;;;;;;5095040;28;20118;-70
2022/01/09 05:59:02;;;;;;;26.58;1.60;;;5.30;99.90;;;;;;5095112;28;20215;-70
2022/01/09 06:01:28;;;;;;;21.08;1.73;;;5.30;99.90;;;;;;5113027;28;20119;-72
2022/01/09 06:03:54;;;;;;;28.60;1.90;;;5.30;99.90;;;;;;5077875;28;20130;-71
2022/01/09 06:06:20;;;;;;;23.42;1.52;;;5.30;99.90;;;;;;5113327;28;20047;-70
2022/01/09 06:08:46;;;;;;;20.27;1.80;;;5.30;99.90;;;;;;5111972;28;20048;-70
2022/01/09 06:11:12;;;;;;;20.65;1.58;;;5.30;99.90;;;;;;5113350;28;20056;-71
2022/01/09 06:13:38;;;;;;;15.57;1.02;;;5.20;99.90;;;;;;5113363;28;20124;-70
2022/01/09 06:16:05;;;;;;;18.73;1.48;;;5.20;99.90;;;;;;5112827;28;20043;-70
2022/01/09 06:18:31;;;;;;;19.03;1.20;;;5.20;99.90;;;;;;5078032;28;20059;-71
2022/01/09 06:20:56;;;;;;;23.70;1.33;;;5.10;99.90;;;;;;5128710;27;20047;-70
2022/01/09 06:23:23;;;;;;;19.80;1.77;;;5.10;99.90;;;;;;5094468;28;20096;-70
2022/01/09 06:25:50;;;;;;;20.10;1.33;;;5.10;99.90;;;;;;5112628;28;20035;-71
2022/01/09 06:28:17;;;;;;;24.13;1.40;;;5.10;99.90;;;;;;5129189;27;20051;-71
2022/01/09 06:30:43;;;;;;;14.15;1.20;;;5.10;99.90;;;;;;5094738;28;20130;-71
2022/01/09 06:33:10;;;;;;;15.55;1.02;;;5.10;99.90;;;;;;5078102;28;20043;-71
2022/01/09 06:35:36;;;;;;;13.05;1.08;;;5.00;99.90;;;;;;5094657;28;20174;-71
2022/01/09 06:38:03;;;;;;;11.93;1.77;;;5.10;99.90;;;;;;5112718;28;20047;-71
2022/01/09 06:40:29;;;;;;;17.17;1.20;;;5.10;99.90;;;;;;5094455;28;20081;-72
2022/01/09 06:42:55;;;;;;;10.13;0.80;;;5.10;99.90;;;;;;5112399;28;20046;-70
2022/01/09 06:45:23;;;;;;;10.88;1.13;;;5.00;99.90;;;;;;5095441;28;20131;-70
2022/01/09 06:47:49;;;;;;;10.38;1.08;;;5.00;99.90;;;;;;5111685;28;20475;-70
2022/01/09 06:50:15;;;;;;;17.13;1.40;;;5.00;99.90;;;;;;5077885;28;20174;-70
2022/01/09 06:52:41;;;;;;;15.70;1.20;;;5.00;99.90;;;;;;5112603;28;20039;-70
2022/01/09 06:55:08;;;;;;;14.57;1.42;;;4.90;99.90;;;;;;5129003;28;20044;-69
2022/01/09 06:57:34;;;;;;;12.65;0.90;;;4.90;99.90;;;;;;5128387;28;20051;-70
2022/01/09 07:00:00;;;;;;;15.88;1.00;;;4.90;99.90;;;;;;5128875;28;20093;-71
2022/01/09 07:02:26;;;;;;;17.20;0.93;;;4.90;99.90;;;;;;5094205;28;20138;-71
2022/01/09 07:04:52;;;;;;;12.27;0.98;;;4.80;99.90;;;;;;5111751;28;20087;-70
2022/01/09 07:07:17;;;;;;;15.85;1.05;;;4.70;99.90;;;;;;5112697;28;20509;-72
2022/01/09 07:09:43;;;;;;;14.82;1.67;;;4.80;99.90;;;;;;5077864;28;20055;-69
2022/01/09 07:12:09;;;;;;;13.45;1.77;;;4.80;99.90;;;;;;5094345;28;20119;-68
2022/01/09 07:14:36;;;;;;;11.35;1.20;;;4.80;99.90;;;;;;5128685;28;20210;-70
2022/01/09 07:17:02;;;;;;;13.73;1.02;;;4.70;99.90;;;;;;5077348;28;20191;-71
2022/01/09 07:19:28;;;;;;;10.33;0.90;;;4.70;99.90;;;;;;5090587;28;20056;-71
2022/01/09 07:21:54;;;;;;;10.02;0.57;;;4.70;99.90;;;;;;5090496;28;20071;-71
2022/01/09 07:24:20;;;;;;;9.90;0.80;;;4.70;99.90;;;;;;5090657;28;20372;-71
2022/01/09 07:26:46;;;;;;;15.85;1.15;;;4.60;99.90;;;;;;5090928;28;20056;-70
2022/01/09 07:29:12;;;;;;;11.40;0.90;;;4.60;99.90;;;;;;5073977;28;20048;-69
2022/01/09 07:31:38;;;;;;;10.18;1.15;;;4.70;99.90;;;;;;5074103;28;20048;-71
2022/01/09 07:34:04;;;;;;;10.18;0.90;;;4.60;99.90;;;;;;5091032;28;20101;-70
2022/01/09 07:36:30;;;;;;;11.38;0.90;;;4.60;99.90;;;;;;5057633;28;20043;-71
2022/01/09 07:38:56;;;;;;;14.65;0.95;;;4.60;99.90;;;;;;5090295;28;20073;-72
2022/01/09 07:41:22;;;;;;;10.88;1.75;;;4.70;99.90;;;;;;5092233;28;20048;-71
2022/01/09 07:43:48;;;;;;;11.85;0.90;;;4.60;99.90;;;;;;5073901;28;20044;-71
2022/01/09 07:46:14;;;;;;;13.85;0.95;;;4.60;99.90;;;;;;5094127;28;20142;-72
2022/01/09 07:48:40;;;;;;;10.35;1.02;;;4.60;99.90;;;;;;5077969;28;20415;-69
2022/01/09 07:51:05;;;;;;;12.13;1.17;;;4.60;99.90;;;;;;5094060;28;20044;-70
2022/01/09 07:53:32;;;;;;;14.23;1.10;;;4.60;99.90;;;;;;5094250;28;20082;-70
2022/01/09 07:55:58;;;;;;;16.83;1.08;;;4.60;99.90;;;;;;5095395;28;20072;-70
2022/01/09 07:58:24;;;;;;;13.85;0.68;;;4.60;99.90;;;;;;5077138;28;20071;-70
2022/01/09 08:00:50;;;;;;;8.80;0.60;;;4.50;99.90;;;;;;5093681;28;20055;-71
2022/01/09 08:03:15;;;;;;;15.25;1.10;;;4.60;99.90;;;;;;5093910;28;20051;-72
2022/01/09 08:05:41;;;;;;;13.35;0.82;;;4.60;99.90;;;;;;5094177;28;20055;-71
2022/01/09 08:08:07;;;;;;;10.25;1.20;;;4.70;99.90;;;;;;5094879;28;20512;-71
2022/01/09 08:10:33;;;;;;;11.38;0.77;;;4.70;99.90;;;;;;5077200;28;20476;-70
2022/01/09 08:13:00;;;;;;;9.00;1.10;;;4.70;99.90;;;;;;5093908;28;20131;-71
2022/01/09 08:15:28;;;;;;;10.68;0.70;;;4.80;99.90;;;;;;5077845;28;20378;-71
2022/01/09 08:17:54;;;;;;;6.15;0.50;;;4.80;99.90;;;;;;5094973;28;20139;-70
2022/01/09 08:20:20;;;;;;;9.73;0.80;;;4.80;99.90;;;;;;5076715;28;20060;-70
2022/01/09 08:22:46;;;;;;;12.38;0.95;;;4.80;99.90;;;;;;5093689;28;20135;-69
2022/01/09 08:25:15;;;;;;;12.80;0.70;;;4.80;99.90;;;;;;5076908;28;20117;-70
2022/01/09 08:27:43;;;;;;;10.13;0.85;;;4.80;99.90;;;;;;5076862;28;20048;-71
2022/01/09 08:30:10;;;;;;;11.48;0.90;;;4.80;99.90;;;;;;5093588;28;20050;-71
2022/01/09 08:32:37;;;;;;;11.80;0.80;;;4.80;99.90;;;;;;5076819;28;20079;-71
2022/01/09 08:35:04;;;;;;;12.80;0.95;;;4.80;99.90;;;;;;5076651;28;20099;-70
2022/01/09 08:37:30;;;;;;;13.00;0.77;;;4.70;99.90;;;;;;5094029;28;20383;-70
2022/01/09 08:39:56;;;;;;;7.60;0.52;;;4.80;99.90;;;;;;5094422;28;20108;-71
2022/01/09 08:42:22;;;;;;;8.48;0.60;;;4.80;99.90;;;;;;5094498;28;20063;-70
2022/01/09 08:44:48;;;;;;;13.18;1.25;;;4.80;99.90;;;;;;5094103;28;20044;-71
2022/01/09 08:47:14;;;;;;;12.90;0.80;;;4.80;99.90;;;;;;5076237;28;20505;-72
2022/01/09 08:49:40;;;;;;;5.93;0.80;;;4.80;99.90;;;;;;5076056;28;20131;-72
2022/01/09 08:52:08;;;;;;;12.20;1.67;;;4.70;99.90;;;;;;5076877;28;20052;-72
2022/01/09 08:54:34;;;;;;;11.25;1.27;;;4.70;99.90;;;;;;5094157;28;20044;-71
2022/01/09 08:57:00;;;;;;;9.68;1.00;;;4.70;99.90;;;;;;5093191;28;20052;-71
2022/01/09 08:59:26;;;;;;;8.00;0.60;;;4.60;99.90;;;;;;5075588;28;20134;-70
2022/01/09 09:01:52;;;;;;;14.70;0.90;;;4.60;99.90;;;;;;5092685;28;20124;-69
2022/01/09 09:04:19;;;;;;;10.70;1.50;;;4.60;99.90;;;;;;5092781;28;20075;-70
2022/01/09 09:06:45;;;;;;;11.20;1.13;;;4.60;99.90;;;;;;5076048;28;20120;-71
2022/01/09 09:09:11;;;;;;;13.95;0.70;;;4.60;99.90;;;;;;5094192;28;20286;-70
2022/01/09 09:11:37;;;;;;;10.43;1.33;;;4.60;99.90;;;;;;5092454;28;20543;-69
2022/01/09 09:14:04;;;;;;;11.98;0.98;;;4.60;99.90;;;;;;5058913;28;20511;-70
2022/01/09 09:16:31;;;;;;;8.30;0.70;;;4.60;99.90;;;;;;5093861;28;20097;-71
2022/01/09 09:18:57;;;;;;;17.70;1.67;;;4.60;99.90;;;;;;5093297;28;20044;-70
2022/01/09 09:21:23;;;;;;;13.02;1.20;;;4.60;99.90;;;;;;5062858;28;20333;-70
2022/01/09 09:23:49;;;;;;;12.23;1.05;;;4.70;99.90;;;;;;5096294;28;20196;-70
2022/01/09 09:26:16;;;;;;;17.58;1.52;;;4.70;99.90;;;;;;5062629;28;20070;-70
2022/01/09 09:28:43;;;;;;;13.80;1.35;;;4.70;99.90;;;;;;5078876;28;20050;-70
2022/01/09 09:31:09;;;;;;;16.42;0.90;;;4.70;99.90;;;;;;5129365;27;20046;-71
2022/01/09 09:33:35;;;;;;;21.73;3.13;;;4.70;99.90;;;;;;5095213;28;20067;-71
2022/01/09 09:36:02;;;;;;;16.40;1.88;;;4.70;99.90;;;;;;5095461;28;20132;-71
2022/01/09 09:38:29;;;;;;;18.33;1.90;;;4.70;99.90;;;;;;5112153;28;20040;-70
2022/01/09 09:40:56;;;;;;;14.63;1.08;;;4.70;99.90;;;;;;5062031;28;20050;-70
2022/01/09 09:43:22;;;;;;;18.75;1.20;;;4.80;99.90;;;;;;5113572;28;20048;-70
2022/01/09 09:45:48;;;;;;;17.52;2.58;;;4.80;99.90;;;;;;5113459;28;20058;-70
2022/01/09 09:48:15;;;;;;;21.65;1.85;;;4.90;99.90;;;;;;5128903;27;20047;-70
2022/01/09 09:50:40;;;;;;;11.48;1.80;;;4.90;99.90;;;;;;5078161;28;20507;-70
2022/01/09 09:53:07;;;;;;;17.98;2.20;;;4.90;99.90;;;;;;5128879;27;20058;-71
2022/01/09 09:55:32;;;;;;;14.95;1.33;;;5.00;99.90;;;;;;5078395;28;20055;-71
2022/01/09 09:57:58;;;;;;;18.08;3.08;;;5.10;99.90;;;;;;5095773;28;20040;-70
2022/01/09 10:00:25;;;;;;;19.30;1.90;;;5.00;99.90;;;;;;5113290;28;20040;-71
2022/01/09 10:02:54;;;;;;;15.15;1.48;;;5.10;99.90;;;;;;5129620;27;20035;-69
2022/01/09 10:05:25;;;;;;;19.23;3.40;;;5.10;99.90;;;;;;5128890;27;20126;-70
2022/01/09 10:07:53;;;;;;;18.02;2.00;;;5.20;99.90;;;;;;5078544;28;20048;-69
2022/01/09 10:10:21;;;;;;;19.77;2.05;;;5.20;99.90;;;;;;5094889;28;20124;-70
2022/01/09 10:12:48;;;;;;;18.00;1.50;;;5.30;99.90;;;;;;5094802;28;20070;-70
2022/01/09 10:15:17;;;;;;;24.35;1.77;;;5.30;99.90;;;;;;5095025;28;20040;-70
2022/01/09 10:17:48;;;;;;;18.25;1.95;;;5.30;99.90;;;;;;5128756;27;20040;-69
2022/01/09 10:20:23;;;;;;;13.63;1.25;;;5.30;99.90;;;;;;5111845;28;20051;-70
2022/01/09 10:22:53;;;;;;;12.13;1.50;;;5.40;99.90;;;;;;5095250;28;20044;-70
2022/01/09 10:25:19;;;;;;;18.30;1.90;;;5.40;99.90;;;;;;5094705;28;20035;-71
2022/01/09 10:27:46;;;;;;;19.73;1.70;;;5.50;99.90;;;;;;5112677;28;20160;-70
2022/01/09 10:30:13;;;;;;;14.48;1.70;;;5.60;99.90;;;;;;5112730;28;20436;-71
2022/01/09 10:32:39;;;;;;;11.63;1.30;;;5.60;99.90;;;;;;5077756;28;20154;-70
2022/01/09 10:35:06;;;;;;;14.05;1.92;;;5.60;99.90;;;;;;5077260;28;20101;-70
2022/01/09 10:37:32;;;;;;;20.15;1.90;;;5.60;99.90;;;;;;5112648;28;20043;-71
2022/01/09 10:40:00;;;;;;;15.77;1.60;;;5.60;99.90;;;;;;5094826;28;20093;-72
2022/01/09 10:42:27;;;;;;;15.55;2.10;;;5.60;99.90;;;;;;5077193;28;20507;-71
2022/01/09 10:44:53;;;;;;;17.33;1.65;;;5.70;99.90;;;;;;5112358;28;20043;-70
2022/01/09 10:47:19;;;;;;;18.33;1.73;;;5.70;99.90;;;;;;5111169;28;20078;-72
2022/01/09 10:49:51;;;;;;;17.23;1.55;;;5.80;99.90;;;;;;5094195;28;20040;-71
2022/01/09 10:52:24;;;;;;;15.10;1.42;;;5.80;99.90;;;;;;5127806;28;20507;-72
2022/01/09 10:54:53;;;;;;;17.35;1.48;;;5.90;99.90;;;;;;5077974;28;20100;-70
2022/01/09 10:57:32;;;;;;;18.85;1.52;;;6.00;99.90;;;;;;5094977;28;20107;-70
2022/01/09 11:00:16;;;;;;;14.57;1.50;;;6.00;99.90;;;;;;5112411;28;20050;-72
2022/01/09 11:02:45;;;;;;;15.48;1.90;;;6.00;99.90;;;;;;5077239;28;20047;-71
2022/01/09 11:05:11;;;;;;;19.77;1.75;;;6.00;99.90;;;;;;5095041;28;20051;-70
2022/01/09 11:07:37;;;;;;;16.67;1.60;;;6.00;99.90;;;;;;5077481;28;20371;-69
2022/01/09 11:10:05;;;;;;;21.20;2.67;;;6.00;99.90;;;;;;5112210;28;20047;-71
2022/01/09 11:12:36;;;;;;;23.30;1.75;;;6.00;99.90;;;;;;5095494;28;20047;-70
2022/01/09 11:15:03;;;;;;;17.52;1.20;;;6.00;99.90;;;;;;5112374;28;20040;-71
2022/01/09 11:17:29;;;;;;;12.32;1.88;;;6.10;99.90;;;;;;5113922;28;20044;-72
2022/01/09 11:19:55;;;;;;;23.75;1.88;;;6.10;99.90;;;;;;5114648;28;20048;-71
2022/01/09 11:22:22;;;;;;;17.15;1.67;;;6.20;99.90;;;;;;5116315;28;20105;-71
2022/01/09 11:25:02;;;;;;;11.40;1.20;;;6.20;99.90;;;;;;5115309;28;20126;-71
2022/01/09 11:27:34;;;;;;;17.77;1.27;;;6.20;99.90;;;;;;5117049;28;20047;-70
2022/01/09 11:30:17;;;;;;;17.73;1.88;;;6.10;99.90;;;;;;5098537;28;20126;-71
2022/01/09 11:33:15;;;;;;;16.10;1.20;;;6.10;99.90;;;;;;5083907;28;20043;-72
2022/01/09 11:36:11;;;;;;;12.93;1.33;;;6.10;99.90;;;;;;5100125;28;20054;-71
2022/01/09 11:38:58;;;;;;;17.13;1.50;;;6.10;99.90;;;;;;5099532;28;20039;-72
2022/01/09 11:41:27;;;;;;;21.15;2.40;;;6.10;99.90;;;;;;5117549;28;20175;-71
2022/01/09 11:44:06;;;;;;;12.18;0.73;;;6.20;99.90;;;;;;5117213;28;20387;-72
2022/01/09 11:47:00;;;;;;;15.15;1.00;;;6.20;99.90;;;;;;5081626;28;20054;-72
2022/01/09 11:49:27;;;;;;;10.95;0.82;;;6.20;99.90;;;;;;5115687;28;20052;-71
2022/01/09 11:51:55;;;;;;;17.45;1.90;;;6.30;99.90;;;;;;5097126;28;20495;-72
2022/01/09 11:54:22;;;;;;;14.20;1.17;;;6.40;99.90;;;;;;5131943;27;20117;-71
2022/01/09 11:56:54;;;;;;;8.88;1.10;;;6.40;99.90;;;;;;5132248;27;20094;-71
2022/01/09 11:59:26;;;;;;;14.13;0.98;;;6.50;99.90;;;;;;5097345;28;20051;-72
2022/01/09 12:02:04;;;;;;;16.63;1.83;;;6.50;99.90;;;;;;5097347;28;20040;-72
2022/01/09 12:04:30;;;;;;;11.10;1.70;;;6.50;99.90;;;;;;5097901;28;20051;-71
2022/01/09 12:07:04;;;;;;;15.40;1.95;;;6.60;99.90;;;;;;5131643;27;20505;-72
2022/01/09 12:09:41;;;;;;;15.32;1.30;;;6.70;99.90;;;;;;5115996;28;20050;-71
2022/01/09 12:12:16;;;;;;;18.20;1.40;;;6.70;99.90;;;;;;5097645;28;20079;-72
2022/01/09 12:14:42;;;;;;;16.80;1.52;;;6.70;99.90;;;;;;5114216;28;20047;-70
2022/01/09 12:17:36;;;;;;;14.27;1.27;;;6.70;99.90;;;;;;5115795;28;20047;-72
2022/01/09 12:20:07;;;;;;;16.75;1.20;;;6.70;99.90;;;;;;5105883;28;20051;-72
2022/01/09 12:25:34;;;;;;;15.13;1.40;;;6.80;99.90;;;;;;5115195;28;20051;-71
2022/01/09 12:28:23;;;;;;;15.90;1.90;;;6.80;99.90;;;;;;5131253;27;20131;-71
2022/01/09 12:30:55;;;;;;;13.00;1.02;;;6.80;99.90;;;;;;5114512;28;20490;-73
2022/01/09 12:33:25;;;;;;;15.50;1.48;;;6.90;99.90;;;;;;5114861;28;20082;-72
2022/01/09 12:36:07;;;;;;;16.80;1.77;;;6.90;99.90;;;;;;5096915;28;20366;-71
2022/01/09 12:38:36;;;;;;;11.50;0.90;;;6.90;99.90;;;;;;5096586;28;20043;-72
2022/01/09 12:41:07;;;;;;;15.13;1.20;;;6.70;99.90;;;;;;5130495;27;20044;-71
2022/01/09 12:43:35;;;;;;;11.70;1.10;;;6.50;99.90;;;;;;5130815;27;20551;-73
2022/01/09 12:46:21;;;;;;;14.95;0.80;;;6.20;99.90;;;;;;5113730;28;20146;-72
2022/01/09 12:48:55;;;;;;;10.02;0.80;;;6.10;99.90;;;;;;5080041;28;20054;-71
2022/01/09 12:51:21;;;;;;;10.55;0.90;;;5.90;99.90;;;;;;5079551;28;20051;-72
2022/01/09 12:53:50;;;;;;;13.70;1.90;;;5.90;99.90;;;;;;5096023;28;20556;-71